createdAt,value
2023-05-16T00:00:59.634Z,50.902428
2023-05-16T00:01:59.673Z,50.902454
2023-05-16T00:02:59.689Z,50.902443
2023-05-16T00:03:59.710Z,50.902435
2023-05-16T00:04:59.597Z,50.902435
2023-05-16T00:05:59.622Z,50.902443
2023-05-16T00:06:59.618Z,50.902409
2023-05-16T00:07:59.577Z,50.902420
2023-05-16T00:08:59.573Z,50.902447
2023-05-16T00:09:59.574Z,50.902386
2023-05-16T00:10:59.616Z,50.902447
2023-05-16T00:11:59.571Z,50.902454
2023-05-16T00:12:59.545Z,50.902481
2023-05-16T00:13:59.555Z,50.902428
2023-05-16T00:14:59.538Z,50.902443
2023-05-16T00:15:59.568Z,50.902439
2023-05-16T00:16:59.603Z,50.902420
2023-05-16T00:17:59.636Z,50.902397
2023-05-16T00:18:59.553Z,50.902443
2023-05-16T00:19:59.519Z,50.902409
2023-05-16T00:20:59.509Z,50.902390
2023-05-16T00:21:59.476Z,50.902393
2023-05-16T00:22:59.468Z,50.902332
2023-05-16T00:23:59.464Z,50.902363
2023-05-16T00:24:59.478Z,50.902443
2023-05-16T00:25:59.470Z,50.902405
2023-05-16T00:26:59.442Z,50.902390
2023-05-16T00:27:59.430Z,50.902405
2023-05-16T00:28:59.427Z,50.902481
2023-05-16T00:29:59.444Z,50.902458
2023-05-16T00:30:59.401Z,50.902462
2023-05-16T00:31:59.449Z,50.902481
2023-05-16T00:32:59.427Z,50.902477
2023-05-16T00:33:59.506Z,50.902473
2023-05-16T00:34:59.402Z,50.902466
2023-05-16T00:35:59.373Z,50.902485
2023-05-16T00:36:59.367Z,50.902527
2023-05-16T00:37:59.354Z,50.902512
2023-05-16T00:38:59.366Z,50.902462
2023-05-16T00:39:59.340Z,50.902454
2023-05-16T00:40:59.331Z,50.902447
2023-05-16T00:41:59.315Z,50.902431
2023-05-16T00:42:59.308Z,50.902424
2023-05-16T00:43:59.320Z,50.902405
2023-05-16T00:44:59.290Z,50.902397
2023-05-16T00:45:59.319Z,50.902397
2023-05-16T00:46:59.302Z,50.902435
2023-05-16T00:47:59.513Z,50.902390
2023-05-16T00:48:59.291Z,50.902397
2023-05-16T00:49:59.262Z,50.902420
2023-05-16T00:50:59.246Z,50.902447
2023-05-16T00:51:59.234Z,50.902428
2023-05-16T00:52:59.259Z,50.902409
2023-05-16T00:53:59.222Z,50.902451
2023-05-16T00:54:59.234Z,50.902431
2023-05-16T00:55:59.230Z,50.902451
2023-05-16T00:56:59.195Z,50.902473
2023-05-16T00:57:59.219Z,50.902458
2023-05-16T00:58:59.185Z,50.902370
2023-05-16T00:59:59.181Z,50.902397
2023-05-16T01:00:59.216Z,50.902462
2023-05-16T01:01:59.243Z,50.902443
2023-05-16T01:02:59.339Z,50.902462
2023-05-16T01:03:59.254Z,50.902454
2023-05-16T01:04:59.136Z,50.902451
2023-05-16T01:05:59.120Z,50.902454
2023-05-16T01:06:59.142Z,50.902428
2023-05-16T01:07:59.152Z,50.902424
2023-05-16T01:08:59.103Z,50.902435
2023-05-16T01:09:59.113Z,50.902428
2023-05-16T01:10:59.100Z,50.902424
2023-05-16T01:11:59.103Z,50.902431
2023-05-16T01:12:59.075Z,50.902428
2023-05-16T01:13:59.076Z,50.902439
2023-05-16T01:14:59.062Z,50.902439
2023-05-16T01:15:59.098Z,50.902420
2023-05-16T01:16:59.070Z,50.902412
2023-05-16T01:17:59.139Z,50.902397
2023-05-16T01:18:59.065Z,50.902386
2023-05-16T01:19:59.020Z,50.902382
2023-05-16T01:20:59.011Z,50.902382
2023-05-16T01:21:59.025Z,50.902390
2023-05-16T01:22:58.993Z,50.902393
2023-05-16T01:23:58.985Z,50.902416
2023-05-16T01:24:58.976Z,50.902374
2023-05-16T01:25:59.010Z,50.902409
2023-05-16T01:26:58.984Z,50.902355
2023-05-16T01:27:58.954Z,50.902348
2023-05-16T01:28:58.948Z,50.902393
2023-05-16T01:29:58.949Z,50.902409
2023-05-16T01:30:59.026Z,50.902428
2023-05-16T01:31:59.001Z,50.902424
2023-05-16T01:32:58.970Z,50.902420
2023-05-16T01:33:58.905Z,50.902390
2023-05-16T01:34:58.899Z,50.902439
2023-05-16T01:35:58.936Z,50.902412
2023-05-16T01:36:58.914Z,50.902401
2023-05-16T01:37:58.896Z,50.902359
2023-05-16T01:38:58.869Z,50.902294
2023-05-16T01:39:58.892Z,50.902363
2023-05-16T01:40:58.889Z,50.902374
2023-05-16T01:41:58.860Z,50.902382
2023-05-16T01:42:58.842Z,50.902428
2023-05-16T01:43:58.826Z,50.902431
2023-05-16T01:44:58.856Z,50.902405
2023-05-16T01:45:59.733Z,50.902416
2023-05-16T01:46:58.885Z,50.902439
2023-05-16T01:47:58.988Z,50.902390
2023-05-16T01:48:58.863Z,50.902367
2023-05-16T01:49:58.816Z,50.902428
2023-05-16T01:50:58.776Z,50.902412
2023-05-16T01:51:58.770Z,50.902405
2023-05-16T01:52:58.772Z,50.902405
2023-05-16T01:53:58.788Z,50.902397
2023-05-16T01:54:58.774Z,50.902382
2023-05-16T01:55:58.735Z,50.902443
2023-05-16T01:56:58.756Z,50.902451
2023-05-16T01:57:58.731Z,50.902416
2023-05-16T01:58:58.767Z,50.902431
2023-05-16T01:59:58.722Z,50.902431
2023-05-16T02:00:58.791Z,50.902454
2023-05-16T02:01:58.697Z,50.902451
2023-05-16T02:02:58.717Z,50.902462
2023-05-16T02:03:58.756Z,50.902431
2023-05-16T02:04:58.680Z,50.902424
2023-05-16T02:05:58.669Z,50.902428
2023-05-16T02:06:58.667Z,50.902435
2023-05-16T02:07:58.697Z,50.902454
2023-05-16T02:08:58.649Z,50.902447
2023-05-16T02:09:58.689Z,50.902447
2023-05-16T02:10:58.668Z,50.902447
2023-05-16T02:11:58.638Z,50.902443
2023-05-16T02:12:58.630Z,50.902443
2023-05-16T02:13:58.606Z,50.902405
2023-05-16T02:14:58.618Z,50.902416
2023-05-16T02:15:58.607Z,50.902378
2023-05-16T02:16:58.626Z,50.902390
2023-05-16T02:17:58.630Z,50.902386
2023-05-16T02:18:58.662Z,50.902431
2023-05-16T02:19:58.600Z,50.902431
2023-05-16T02:20:58.555Z,50.902447
2023-05-16T02:21:58.546Z,50.902428
2023-05-16T02:22:58.542Z,50.902431
2023-05-16T02:23:58.580Z,50.902409
2023-05-16T02:24:58.546Z,50.902439
2023-05-16T02:25:58.512Z,50.902428
2023-05-16T02:26:58.508Z,50.902443
2023-05-16T02:27:58.495Z,50.902431
2023-05-16T02:28:58.537Z,50.902451
2023-05-16T02:29:58.480Z,50.902424
2023-05-16T02:30:58.496Z,50.902428
2023-05-16T02:31:58.481Z,50.902420
2023-05-16T02:32:58.511Z,50.902428
2023-05-16T02:33:58.475Z,50.902412
2023-05-16T02:34:58.450Z,50.902412
2023-05-16T02:35:58.439Z,50.902435
2023-05-16T02:36:58.428Z,50.902412
2023-05-16T02:37:58.457Z,50.902420
2023-05-16T02:38:58.444Z,50.902458
2023-05-16T02:39:58.421Z,50.902424
2023-05-16T02:40:58.427Z,50.902431
2023-05-16T02:41:58.393Z,50.902424
2023-05-16T02:42:58.417Z,50.902420
2023-05-16T02:43:58.404Z,50.902439
2023-05-16T02:44:58.371Z,50.902416
2023-05-16T02:45:58.384Z,50.902424
2023-05-16T02:46:58.356Z,50.902428
2023-05-16T02:47:58.422Z,50.902431
2023-05-16T02:48:58.338Z,50.902397
2023-05-16T02:49:58.369Z,50.902424
2023-05-16T02:50:58.318Z,50.902412
2023-05-16T02:51:58.315Z,50.902424
2023-05-16T02:52:58.331Z,50.902420
2023-05-16T02:53:58.299Z,50.902405
2023-05-16T02:55:15.995Z,50.902431
2023-05-16T02:56:00.283Z,50.902431
2023-05-16T02:56:58.299Z,50.902466
2023-05-16T02:57:58.295Z,50.902496
2023-05-16T02:58:58.265Z,50.902462
2023-05-16T02:59:58.262Z,50.902435
2023-05-16T03:00:58.251Z,50.902477
2023-05-16T03:01:58.354Z,50.902409
2023-05-16T03:02:58.380Z,50.902363
2023-05-16T03:03:58.283Z,50.902367
2023-05-16T03:04:58.216Z,50.902473
2023-05-16T03:05:58.206Z,50.902443
2023-05-16T03:06:58.235Z,50.902393
2023-05-16T03:07:58.198Z,50.902370
2023-05-16T03:08:58.185Z,50.902424
2023-05-16T03:09:58.177Z,50.902401
2023-05-16T03:10:58.167Z,50.902412
2023-05-16T03:11:58.196Z,50.902378
2023-05-16T03:12:58.184Z,50.902401
2023-05-16T03:13:59.656Z,50.902416
2023-05-16T03:14:58.145Z,50.902401
2023-05-16T03:15:58.184Z,50.902355
2023-05-16T03:16:58.156Z,50.902443
2023-05-16T03:17:58.183Z,50.902473
2023-05-16T03:18:58.197Z,50.902378
2023-05-16T03:19:58.207Z,50.902451
2023-05-16T03:20:58.127Z,50.902477
2023-05-16T03:21:58.089Z,50.902382
2023-05-16T03:22:58.087Z,50.902401
2023-05-16T03:23:58.129Z,50.902500
2023-05-16T03:24:58.071Z,50.902466
2023-05-16T03:25:58.087Z,50.902397
2023-05-16T03:26:58.088Z,50.902416
2023-05-16T03:27:58.052Z,50.902428
2023-05-16T03:28:58.057Z,50.902386
2023-05-16T03:29:58.054Z,50.902378
2023-05-16T03:30:58.044Z,50.902412
2023-05-16T03:31:58.078Z,50.902466
2023-05-16T03:32:58.016Z,50.902424
2023-05-16T03:33:57.996Z,50.902500
2023-05-16T03:34:58.008Z,50.902489
2023-05-16T03:35:58.004Z,50.902378
2023-05-16T03:36:57.973Z,50.902439
2023-05-16T03:37:57.962Z,50.902458
2023-05-16T03:38:57.973Z,50.902431
2023-05-16T03:39:57.986Z,50.902447
2023-05-16T03:40:57.958Z,50.902447
2023-05-16T03:41:57.946Z,50.902462
2023-05-16T03:42:57.954Z,50.902447
2023-05-16T03:43:57.922Z,50.902443
2023-05-16T03:44:57.931Z,50.902454
2023-05-16T03:45:57.938Z,50.902435
2023-05-16T03:46:58.890Z,50.902439
2023-05-16T03:47:57.935Z,50.902435
2023-05-16T03:48:57.901Z,50.902458
2023-05-16T03:49:57.892Z,50.902431
2023-05-16T03:50:57.858Z,50.902431
2023-05-16T03:51:57.853Z,50.902428
2023-05-16T03:52:58.874Z,50.902420
2023-05-16T03:53:57.865Z,50.902405
2023-05-16T03:54:57.839Z,50.902435
2023-05-16T03:55:57.829Z,50.902416
2023-05-16T03:56:57.819Z,50.902409
2023-05-16T03:57:57.811Z,50.902424
2023-05-16T03:58:57.850Z,50.902428
2023-05-16T03:59:57.797Z,50.902416
2023-05-16T04:00:57.789Z,50.902412
2023-05-16T04:01:57.830Z,50.902412
2023-05-16T04:02:57.832Z,50.902420
2023-05-16T04:03:57.793Z,50.902420
2023-05-16T04:04:57.756Z,50.902416
2023-05-16T04:05:57.782Z,50.902443
2023-05-16T04:06:57.737Z,50.902439
2023-05-16T04:07:57.780Z,50.902454
2023-05-16T04:08:57.755Z,50.902424
2023-05-16T04:09:57.713Z,50.902428
2023-05-16T04:10:57.719Z,50.902409
2023-05-16T04:11:57.711Z,50.902401
2023-05-16T04:12:57.715Z,50.902409
2023-05-16T04:13:57.720Z,50.902405
2023-05-16T04:14:57.689Z,50.902412
2023-05-16T04:15:57.671Z,50.902424
2023-05-16T04:16:57.713Z,50.902431
2023-05-16T04:17:57.730Z,50.902428
2023-05-16T04:18:57.652Z,50.902451
2023-05-16T04:19:57.726Z,50.902447
2023-05-16T04:20:58.023Z,50.902412
2023-05-16T04:21:57.621Z,50.902431
2023-05-16T04:22:57.646Z,50.902435
2023-05-16T04:23:57.671Z,50.902424
2023-05-16T04:24:57.601Z,50.902401
2023-05-16T04:25:57.588Z,50.902443
2023-05-16T04:26:57.637Z,50.902416
2023-05-16T04:27:57.640Z,50.902420
2023-05-16T04:28:57.595Z,50.902443
2023-05-16T04:29:57.564Z,50.902397
2023-05-16T04:30:57.558Z,50.902439
2023-05-16T04:31:57.721Z,50.902428
2023-05-16T04:32:57.635Z,50.902424
2023-05-16T04:33:57.539Z,50.902409
2023-05-16T04:34:57.528Z,50.902428
2023-05-16T04:35:57.602Z,50.902454
2023-05-16T04:36:57.596Z,50.902443
2023-05-16T04:37:57.567Z,50.902454
2023-05-16T04:38:57.511Z,50.902454
2023-05-16T04:39:57.536Z,50.902435
2023-05-16T04:40:57.518Z,50.902443
2023-05-16T04:41:57.501Z,50.902420
2023-05-16T04:42:57.466Z,50.902405
2023-05-16T04:43:57.465Z,50.902405
2023-05-16T04:44:57.451Z,50.902390
2023-05-16T04:45:57.512Z,50.902405
2023-05-16T04:46:57.665Z,50.902351
2023-05-16T04:47:57.445Z,50.902382
2023-05-16T04:48:57.418Z,50.902393
2023-05-16T04:49:57.465Z,50.902409
2023-05-16T04:50:57.457Z,50.902405
2023-05-16T04:51:57.414Z,50.902401
2023-05-16T04:52:57.393Z,50.902409
2023-05-16T04:53:57.398Z,50.902439
2023-05-16T04:54:57.417Z,50.902424
2023-05-16T04:55:57.419Z,50.902424
2023-05-16T04:56:57.370Z,50.902409
2023-05-16T04:57:58.351Z,50.902386
2023-05-16T04:58:57.348Z,50.902420
2023-05-16T04:59:57.357Z,50.902351
2023-05-16T05:00:57.349Z,50.902378
2023-05-16T05:01:57.344Z,50.902397
2023-05-16T05:02:57.323Z,50.902382
2023-05-16T05:03:57.311Z,50.902393
2023-05-16T05:04:57.345Z,50.902378
2023-05-16T05:05:57.335Z,50.902416
2023-05-16T05:06:57.283Z,50.902386
2023-05-16T05:07:57.272Z,50.902397
2023-05-16T05:08:57.268Z,50.902443
2023-05-16T05:09:57.303Z,50.902412
2023-05-16T05:10:57.244Z,50.902412
2023-05-16T05:11:57.250Z,50.902378
2023-05-16T05:12:57.228Z,50.902386
2023-05-16T05:13:57.240Z,50.902363
2023-05-16T05:14:57.243Z,50.902401
2023-05-16T05:15:57.208Z,50.902374
2023-05-16T05:16:57.232Z,50.902363
2023-05-16T05:17:57.330Z,50.902351
2023-05-16T05:18:57.310Z,50.902378
2023-05-16T05:19:57.186Z,50.902390
2023-05-16T05:20:57.179Z,50.902405
2023-05-16T05:21:57.165Z,50.902367
2023-05-16T05:22:57.174Z,50.902393
2023-05-16T05:23:57.174Z,50.902382
2023-05-16T05:24:57.141Z,50.902390
2023-05-16T05:25:57.141Z,50.902397
2023-05-16T05:26:58.123Z,50.902386
2023-05-16T05:27:57.143Z,50.902378
2023-05-16T05:29:04.499Z,50.902382
2023-05-16T05:29:59.099Z,50.902363
2023-05-16T05:30:57.097Z,50.902374
2023-05-16T05:31:57.131Z,50.902401
2023-05-16T05:32:57.176Z,50.902386
2023-05-16T05:33:57.073Z,50.902382
2023-05-16T05:34:57.059Z,50.902367
2023-05-16T05:35:57.055Z,50.902374
2023-05-16T05:36:57.042Z,50.902374
2023-05-16T05:37:57.065Z,50.902401
2023-05-16T05:38:57.049Z,50.902378
2023-05-16T05:39:57.020Z,50.902405
2023-05-16T05:40:57.030Z,50.902378
2023-05-16T05:41:57.033Z,50.902393
2023-05-16T05:42:57.018Z,50.902390
2023-05-16T05:43:56.999Z,50.902390
2023-05-16T05:44:56.997Z,50.902378
2023-05-16T05:45:57.098Z,50.902386
2023-05-16T05:46:57.029Z,50.902355
2023-05-16T05:47:58.251Z,50.902374
2023-05-16T05:49:29.818Z,50.902374
2023-05-16T05:49:56.943Z,50.902378
2023-05-16T05:50:56.935Z,50.902382
2023-05-16T05:51:57.009Z,50.902374
2023-05-16T05:52:56.918Z,50.902370
2023-05-16T05:53:56.911Z,50.902367
2023-05-16T05:54:56.903Z,50.902374
2023-05-16T05:55:56.903Z,50.902462
2023-05-16T05:56:56.927Z,50.902405
2023-05-16T05:57:56.883Z,50.902397
2023-05-16T05:58:56.875Z,50.902382
2023-05-16T05:59:56.865Z,50.902405
2023-05-16T06:00:56.892Z,50.902382
2023-05-16T06:01:57.123Z,50.902393
2023-05-16T06:02:56.969Z,50.902420
2023-05-16T06:03:56.842Z,50.902424
2023-05-16T06:04:56.872Z,50.902409
2023-05-16T06:05:56.995Z,50.902405
2023-05-16T06:06:56.845Z,50.902409
2023-05-16T06:07:56.807Z,50.902397
2023-05-16T06:08:56.800Z,50.902382
2023-05-16T06:09:56.799Z,50.902393
2023-05-16T06:10:56.814Z,50.902367
2023-05-16T06:11:56.833Z,50.902378
2023-05-16T06:12:56.762Z,50.902401
2023-05-16T06:13:56.747Z,50.902435
2023-05-16T06:14:57.752Z,50.902420
2023-05-16T06:15:56.770Z,50.902412
2023-05-16T06:16:56.797Z,50.902386
2023-05-16T06:17:56.785Z,50.902374
2023-05-16T06:18:56.757Z,50.902378
2023-05-16T06:19:56.742Z,50.902351
2023-05-16T06:20:56.745Z,50.902348
2023-05-16T06:21:56.693Z,50.902363
2023-05-16T06:22:56.685Z,50.902382
2023-05-16T06:23:56.682Z,50.902405
2023-05-16T06:24:56.695Z,50.902412
2023-05-16T06:25:56.669Z,50.902401
2023-05-16T06:26:56.656Z,50.902416
2023-05-16T06:27:56.648Z,50.902409
2023-05-16T06:28:56.649Z,50.902382
2023-05-16T06:29:56.651Z,50.902386
2023-05-16T06:30:56.668Z,50.902390
2023-05-16T06:31:56.783Z,50.902397
2023-05-16T06:32:56.654Z,50.902401
2023-05-16T06:33:56.660Z,50.902382
2023-05-16T06:34:56.621Z,50.902340
2023-05-16T06:35:56.589Z,50.902348
2023-05-16T06:36:56.573Z,50.902367
2023-05-16T06:37:56.568Z,50.902374
2023-05-16T06:38:56.641Z,50.902435
2023-05-16T06:39:56.547Z,50.902351
2023-05-16T06:40:56.548Z,50.902363
2023-05-16T06:41:56.850Z,50.902397
2023-05-16T06:42:57.538Z,50.902382
2023-05-16T06:43:56.642Z,50.902386
2023-05-16T06:44:56.568Z,50.902412
2023-05-16T06:45:56.577Z,50.902393
2023-05-16T06:46:56.542Z,50.902370
2023-05-16T06:47:57.362Z,50.902386
2023-05-16T06:48:57.511Z,50.902378
2023-05-16T06:49:56.491Z,50.902370
2023-05-16T06:50:57.469Z,50.902416
2023-05-16T06:51:56.476Z,50.902412
2023-05-16T06:52:56.513Z,50.902405
2023-05-16T06:53:56.451Z,50.902405
2023-05-16T06:54:56.445Z,50.902386
2023-05-16T06:55:57.334Z,50.902397
2023-05-16T06:56:56.424Z,50.902374
2023-05-16T06:57:56.464Z,50.902393
2023-05-16T06:58:56.408Z,50.902390
2023-05-16T06:59:56.433Z,50.902359
2023-05-16T07:00:56.512Z,50.902367
2023-05-16T07:01:56.437Z,50.902390
2023-05-16T07:02:56.575Z,50.902390
2023-05-16T07:03:56.613Z,50.902382
2023-05-16T07:04:56.360Z,50.902382
2023-05-16T07:05:56.352Z,50.902367
2023-05-16T07:06:56.368Z,50.902390
2023-05-16T07:07:56.338Z,50.902382
2023-05-16T07:08:56.334Z,50.902374
2023-05-16T07:09:56.344Z,50.902431
2023-05-16T07:10:56.316Z,50.902359
2023-05-16T07:11:56.341Z,50.902370
2023-05-16T07:12:56.302Z,50.902397
2023-05-16T07:13:56.294Z,50.902382
2023-05-16T07:14:56.282Z,50.902416
2023-05-16T07:15:56.320Z,50.902409
2023-05-16T07:16:56.355Z,50.902409
2023-05-16T07:17:56.281Z,50.902412
2023-05-16T07:18:56.272Z,50.902382
2023-05-16T07:19:56.281Z,50.902405
2023-05-16T07:20:56.280Z,50.902424
2023-05-16T07:21:57.227Z,50.902405
2023-05-16T07:22:56.226Z,50.902378
2023-05-16T07:23:56.219Z,50.902401
2023-05-16T07:24:56.202Z,50.902370
2023-05-16T07:25:56.247Z,50.902344
2023-05-16T07:26:56.192Z,50.902367
2023-05-16T07:27:56.175Z,50.902378
2023-05-16T07:28:56.173Z,50.902443
2023-05-16T07:29:56.186Z,50.902424
2023-05-16T07:30:56.175Z,50.902386
2023-05-16T07:31:56.228Z,50.902344
2023-05-16T07:32:56.177Z,50.902378
2023-05-16T07:33:56.133Z,50.902424
2023-05-16T07:34:56.152Z,50.902367
2023-05-16T07:36:07.791Z,50.902382
2023-05-16T07:36:58.110Z,50.902401
2023-05-16T07:37:56.102Z,50.902382
2023-05-16T07:38:56.109Z,50.902393
2023-05-16T07:39:56.114Z,50.902370
2023-05-16T07:40:56.074Z,50.902382
2023-05-16T07:41:56.084Z,50.902374
2023-05-16T07:42:56.090Z,50.902374
2023-05-16T07:43:56.048Z,50.902420
2023-05-16T07:44:56.076Z,50.902351
2023-05-16T07:45:56.041Z,50.902466
2023-05-16T07:46:56.058Z,50.902493
2023-05-16T07:47:56.084Z,50.902428
2023-05-16T07:48:56.061Z,50.902359
2023-05-16T07:49:57.029Z,50.902386
2023-05-16T07:50:56.009Z,50.902420
2023-05-16T07:51:56.021Z,50.902397
2023-05-16T07:52:55.998Z,50.902416
2023-05-16T07:53:55.994Z,50.902428
2023-05-16T07:54:55.968Z,50.902390
2023-05-16T07:55:55.955Z,50.902370
2023-05-16T07:56:56.104Z,50.902397
2023-05-16T07:57:55.932Z,50.902451
2023-05-16T07:58:55.985Z,50.902443
2023-05-16T07:59:55.922Z,50.902550
2023-05-16T08:00:55.922Z,50.902424
2023-05-16T08:01:55.906Z,50.902393
2023-05-16T08:02:55.987Z,50.902351
2023-05-16T08:03:55.957Z,50.902363
2023-05-16T08:04:55.926Z,50.902405
2023-05-16T08:05:55.911Z,50.902428
2023-05-16T08:06:55.868Z,50.902420
2023-05-16T08:07:55.882Z,50.902401
2023-05-16T08:08:55.877Z,50.902401
2023-05-16T08:09:55.843Z,50.902370
2023-05-16T08:10:55.833Z,50.902409
2023-05-16T08:11:55.831Z,50.902412
2023-05-16T08:12:55.825Z,50.902401
2023-05-16T08:13:55.864Z,50.902435
2023-05-16T08:14:55.805Z,50.902382
2023-05-16T08:15:55.812Z,50.902405
2023-05-16T08:16:55.809Z,50.902428
2023-05-16T08:17:55.888Z,50.902435
2023-05-16T08:18:55.849Z,50.902424
2023-05-16T08:19:55.775Z,50.902412
2023-05-16T08:20:55.760Z,50.902420
2023-05-16T08:21:55.757Z,50.902409
2023-05-16T08:22:55.764Z,50.902420
2023-05-16T08:23:55.753Z,50.902420
2023-05-16T08:24:55.735Z,50.902428
2023-05-16T08:25:55.723Z,50.902473
2023-05-16T08:26:55.736Z,50.902447
2023-05-16T08:27:56.474Z,50.902428
2023-05-16T08:28:55.707Z,50.902409
2023-05-16T08:29:55.716Z,50.902439
2023-05-16T08:30:55.732Z,50.902420
2023-05-16T08:31:55.749Z,50.902420
2023-05-16T08:32:55.717Z,50.902359
2023-05-16T08:33:55.661Z,50.902390
2023-05-16T08:34:55.660Z,50.902382
2023-05-16T08:35:55.637Z,50.902393
2023-05-16T08:36:55.666Z,50.902409
2023-05-16T08:37:55.636Z,50.902405
2023-05-16T08:38:56.278Z,50.902397
2023-05-16T08:39:55.629Z,50.902420
2023-05-16T08:40:55.703Z,50.902435
2023-05-16T08:41:55.631Z,50.902412
2023-05-16T08:42:55.588Z,50.902409
2023-05-16T08:43:55.574Z,50.902416
2023-05-16T08:44:55.570Z,50.902405
2023-05-16T08:45:55.606Z,50.902397
2023-05-16T08:46:55.703Z,50.902390
2023-05-16T08:47:55.595Z,50.902428
2023-05-16T08:48:55.534Z,50.902443
2023-05-16T08:49:55.539Z,50.902397
2023-05-16T08:50:55.555Z,50.902382
2023-05-16T08:51:55.534Z,50.902405
2023-05-16T08:52:55.539Z,50.902401
2023-05-16T08:53:55.511Z,50.902416
2023-05-16T08:55:09.381Z,50.902428
2023-05-16T08:55:57.561Z,50.902431
2023-05-16T08:56:55.480Z,50.902439
2023-05-16T08:57:55.465Z,50.902431
2023-05-16T08:58:56.480Z,50.902420
2023-05-16T08:59:56.870Z,50.902393
2023-05-16T09:00:55.580Z,50.902409
2023-05-16T09:01:55.435Z,50.902401
2023-05-16T09:02:55.455Z,50.902405
2023-05-16T09:03:55.476Z,50.902409
2023-05-16T09:04:55.475Z,50.902416
2023-05-16T09:05:55.437Z,50.902397
2023-05-16T09:06:55.403Z,50.902412
2023-05-16T09:07:55.396Z,50.902397
2023-05-16T09:08:55.409Z,50.902393
2023-05-16T09:09:55.426Z,50.902409
2023-05-16T09:10:55.372Z,50.902397
2023-05-16T09:11:55.383Z,50.902405
2023-05-16T09:12:55.362Z,50.902409
2023-05-16T09:13:55.350Z,50.902386
2023-05-16T09:14:55.372Z,50.902397
2023-05-16T09:15:55.336Z,50.902390
2023-05-16T09:16:55.384Z,50.902390
2023-05-16T09:17:55.496Z,50.902439
2023-05-16T09:18:55.436Z,50.902401
2023-05-16T09:19:55.326Z,50.902428
2023-05-16T09:20:55.301Z,50.902393
2023-05-16T09:21:55.290Z,50.902420
2023-05-16T09:22:55.273Z,50.902409
2023-05-16T09:23:55.306Z,50.902428
2023-05-16T09:24:55.260Z,50.902401
2023-05-16T09:25:55.265Z,50.902397
2023-05-16T09:26:55.258Z,50.902405
2023-05-16T09:27:55.244Z,50.902428
2023-05-16T09:28:55.262Z,50.902428
2023-05-16T09:29:55.224Z,50.902386
2023-05-16T09:30:55.291Z,50.902397
2023-05-16T09:31:55.205Z,50.902428
2023-05-16T09:32:55.260Z,50.902431
2023-05-16T09:33:55.210Z,50.902431
2023-05-16T09:34:55.176Z,50.902454
2023-05-16T09:35:55.177Z,50.902424
2023-05-16T09:36:55.164Z,50.902435
2023-05-16T09:37:55.187Z,50.902439
2023-05-16T09:38:55.148Z,50.902435
2023-05-16T09:39:55.164Z,50.902409
2023-05-16T09:40:55.137Z,50.902451
2023-05-16T09:41:55.129Z,50.902443
2023-05-16T09:42:55.146Z,50.902424
2023-05-16T09:43:55.130Z,50.902439
2023-05-16T09:44:55.109Z,50.902420
2023-05-16T09:45:55.133Z,50.902397
2023-05-16T09:46:55.276Z,50.902435
2023-05-16T09:47:55.137Z,50.902443
2023-05-16T09:48:55.083Z,50.902443
2023-05-16T09:49:55.064Z,50.902397
2023-05-16T09:50:55.100Z,50.902462
2023-05-16T09:51:55.058Z,50.902451
2023-05-16T09:52:55.063Z,50.902431
2023-05-16T09:53:55.042Z,50.902424
2023-05-16T09:54:55.048Z,50.902428
2023-05-16T09:55:55.019Z,50.902431
2023-05-16T09:56:55.003Z,50.902397
2023-05-16T09:57:55.033Z,50.902374
2023-05-16T09:58:54.990Z,50.902412
2023-05-16T09:59:55.005Z,50.902401
2023-05-16T10:00:55.879Z,50.902405
2023-05-16T10:01:55.103Z,50.902393
2023-05-16T10:02:55.030Z,50.902393
2023-05-16T10:03:56.068Z,50.902412
2023-05-16T10:04:54.959Z,50.902367
2023-05-16T10:05:54.929Z,50.902359
2023-05-16T10:06:54.960Z,50.902367
2023-05-16T10:07:54.946Z,50.902363
2023-05-16T10:08:54.912Z,50.902363
2023-05-16T10:09:54.899Z,50.902367
2023-05-16T10:10:54.899Z,50.902359
2023-05-16T10:11:54.915Z,50.902378
2023-05-16T10:12:54.874Z,50.902412
2023-05-16T10:13:55.391Z,50.902363
2023-05-16T10:14:54.862Z,50.902370
2023-05-16T10:15:54.906Z,50.902386
2023-05-16T10:16:54.915Z,50.902382
2023-05-16T10:17:54.941Z,50.902367
2023-05-16T10:18:54.881Z,50.902363
2023-05-16T10:19:54.832Z,50.902378
2023-05-16T10:20:54.808Z,50.902397
2023-05-16T10:21:54.839Z,50.902363
2023-05-16T10:22:54.801Z,50.902363
2023-05-16T10:23:54.796Z,50.902370
2023-05-16T10:24:54.788Z,50.902370
2023-05-16T10:25:54.822Z,50.902386
2023-05-16T10:26:54.816Z,50.902378
2023-05-16T10:27:54.761Z,50.902370
2023-05-16T10:28:54.811Z,50.902374
2023-05-16T10:29:55.223Z,50.902382
2023-05-16T10:30:54.792Z,50.902378
2023-05-16T10:31:54.782Z,50.902378
2023-05-16T10:32:54.756Z,50.902409
2023-05-16T10:33:54.718Z,50.902397
2023-05-16T10:34:54.705Z,50.902378
2023-05-16T10:35:54.764Z,50.902431
2023-05-16T10:36:54.706Z,50.902405
2023-05-16T10:37:54.687Z,50.902386
2023-05-16T10:38:54.692Z,50.902405
2023-05-16T10:39:54.694Z,50.902401
2023-05-16T10:40:54.683Z,50.902420
2023-05-16T10:41:54.661Z,50.902405
2023-05-16T10:42:54.655Z,50.902374
2023-05-16T10:43:54.638Z,50.902374
2023-05-16T10:45:05.103Z,50.902367
2023-05-16T10:45:56.671Z,50.902351
2023-05-16T10:46:54.609Z,50.902386
2023-05-16T10:47:54.676Z,50.902367
2023-05-16T10:48:55.957Z,50.902390
2023-05-16T10:49:55.613Z,50.902405
2023-05-16T10:50:54.586Z,50.902374
2023-05-16T10:51:54.586Z,50.902367
2023-05-16T10:52:54.568Z,50.902370
2023-05-16T10:53:54.681Z,50.902363
2023-05-16T10:54:54.573Z,50.902382
2023-05-16T10:55:54.543Z,50.902412
2023-05-16T10:56:54.530Z,50.902397
2023-05-16T10:57:54.528Z,50.902348
2023-05-16T10:58:54.683Z,50.902355
2023-05-16T10:59:56.063Z,50.902393
2023-05-16T11:00:54.550Z,50.902370
2023-05-16T11:01:54.565Z,50.902363
2023-05-16T11:02:54.605Z,50.902370
2023-05-16T11:03:54.519Z,50.902340
2023-05-16T11:04:54.470Z,50.902351
2023-05-16T11:05:54.462Z,50.902370
2023-05-16T11:06:54.471Z,50.902332
2023-05-16T11:07:54.464Z,50.902328
2023-05-16T11:08:54.469Z,50.902367
2023-05-16T11:09:54.427Z,50.902370
2023-05-16T11:10:54.421Z,50.902378
2023-05-16T11:11:54.422Z,50.902348
2023-05-16T11:12:54.430Z,50.902351
2023-05-16T11:13:54.409Z,50.902294
2023-05-16T11:14:54.409Z,50.902348
2023-05-16T11:15:54.410Z,50.902386
2023-05-16T11:16:54.481Z,50.902302
2023-05-16T11:17:54.405Z,50.902359
2023-05-16T11:18:54.384Z,50.902363
2023-05-16T11:19:54.458Z,50.902355
2023-05-16T11:20:54.353Z,50.902367
2023-05-16T11:21:54.342Z,50.902370
2023-05-16T11:22:54.360Z,50.902378
2023-05-16T11:23:54.329Z,50.902359
2023-05-16T11:24:54.324Z,50.902355